createdAt,value
2017-07-09T00:01:28.046Z,22.20
2017-07-09T00:03:57.145Z,22.10
2017-07-09T00:06:25.481Z,22.10
2017-07-09T00:08:53.811Z,22.10
2017-07-09T00:11:22.202Z,22.00
2017-07-09T00:13:50.525Z,21.90
2017-07-09T00:16:18.825Z,21.90
2017-07-09T00:18:47.137Z,21.90
2017-07-09T00:21:15.482Z,21.90
2017-07-09T00:23:43.778Z,21.80
2017-07-09T00:26:12.074Z,21.70
2017-07-09T00:28:40.402Z,21.60
2017-07-09T00:31:08.707Z,21.70
2017-07-09T00:33:37.077Z,21.70
2017-07-09T00:36:05.372Z,21.80
2017-07-09T00:38:34.437Z,21.90
2017-07-09T00:41:02.769Z,21.80
2017-07-09T00:43:31.076Z,21.90
2017-07-09T00:45:59.393Z,22.00
2017-07-09T00:48:28.470Z,22.00
2017-07-09T00:50:56.807Z,21.90
2017-07-09T00:53:25.129Z,22.00
2017-07-09T00:55:53.461Z,22.00
2017-07-09T00:58:21.849Z,22.00
2017-07-09T01:00:50.149Z,22.00
2017-07-09T01:03:18.484Z,21.90
2017-07-09T01:05:46.933Z,22.00
2017-07-09T01:08:15.236Z,21.90
2017-07-09T01:10:43.567Z,21.90
2017-07-09T01:13:11.910Z,21.90
2017-07-09T01:15:40.205Z,21.90
2017-07-09T01:18:08.510Z,21.80
2017-07-09T01:20:36.840Z,21.80
2017-07-09T01:23:05.176Z,21.80
2017-07-09T01:25:33.478Z,21.70
2017-07-09T01:28:01.779Z,21.70
2017-07-09T01:30:30.101Z,21.60
2017-07-09T01:32:59.170Z,21.60
2017-07-09T01:35:27.503Z,21.60
2017-07-09T01:37:55.804Z,21.60
2017-07-09T01:40:24.154Z,21.60
2017-07-09T01:42:52.455Z,21.60
2017-07-09T01:45:20.821Z,21.60
2017-07-09T01:47:49.123Z,21.60
2017-07-09T01:50:17.422Z,21.60
2017-07-09T01:52:45.746Z,21.60
2017-07-09T01:55:14.045Z,21.60
2017-07-09T01:57:42.386Z,21.50
2017-07-09T02:00:10.685Z,21.50
2017-07-09T02:02:39.747Z,21.40
2017-07-09T02:05:08.093Z,21.40
2017-07-09T02:07:36.398Z,21.40
2017-07-09T02:10:05.457Z,21.30
2017-07-09T02:12:33.781Z,21.20
2017-07-09T02:15:02.871Z,21.20
2017-07-09T02:17:31.687Z,21.20
2017-07-09T02:19:59.990Z,21.20
2017-07-09T02:22:28.321Z,21.10
2017-07-09T02:24:56.615Z,21.10
2017-07-09T02:27:24.948Z,21.10
2017-07-09T02:29:53.486Z,21.00
2017-07-09T02:32:22.551Z,21.00
2017-07-09T02:34:50.899Z,21.00
2017-07-09T02:37:19.193Z,21.00
2017-07-09T02:39:47.493Z,21.00
2017-07-09T02:42:15.841Z,21.00
2017-07-09T02:44:44.136Z,21.00
2017-07-09T02:47:12.441Z,21.00
2017-07-09T02:49:40.782Z,20.90
2017-07-09T02:52:09.083Z,20.90
2017-07-09T02:54:37.411Z,20.90
2017-07-09T02:57:05.757Z,20.80
2017-07-09T02:59:34.050Z,20.80
2017-07-09T03:02:03.129Z,20.70
2017-07-09T03:04:31.508Z,20.70
2017-07-09T03:06:59.807Z,20.70
2017-07-09T03:09:28.101Z,20.70
2017-07-09T03:11:56.441Z,20.70
2017-07-09T03:14:24.739Z,20.70
2017-07-09T03:16:53.034Z,20.70
2017-07-09T03:19:21.433Z,20.70
2017-07-09T03:21:49.750Z,20.70
2017-07-09T03:24:18.052Z,20.60
2017-07-09T03:26:46.378Z,20.60
2017-07-09T03:29:14.678Z,20.60
2017-07-09T03:31:42.974Z,20.60
2017-07-09T03:34:11.300Z,20.60
2017-07-09T03:36:40.382Z,20.60
2017-07-09T03:39:08.714Z,20.60
2017-07-09T03:41:37.006Z,20.60
2017-07-09T03:44:05.341Z,20.60
2017-07-09T03:46:33.637Z,20.60
2017-07-09T03:49:01.937Z,20.60
2017-07-09T03:51:30.278Z,20.60
2017-07-09T03:53:58.579Z,20.70
2017-07-09T03:56:26.881Z,20.70
2017-07-09T03:58:55.209Z,20.70
2017-07-09T04:01:23.534Z,20.60
2017-07-09T04:03:51.839Z,20.60
2017-07-09T04:06:20.232Z,20.60
2017-07-09T04:08:48.561Z,20.60
2017-07-09T04:11:16.910Z,20.60
2017-07-09T04:13:45.971Z,20.80
2017-07-09T04:16:14.267Z,20.70
2017-07-09T04:18:42.680Z,20.80
2017-07-09T04:21:11.011Z,20.80
2017-07-09T04:23:39.306Z,20.90
2017-07-09T04:26:07.637Z,21.00
2017-07-09T04:28:35.974Z,21.00
2017-07-09T04:31:04.275Z,21.10
2017-07-09T04:33:33.338Z,21.20
2017-07-09T04:36:01.666Z,21.20
2017-07-09T04:38:29.966Z,21.30
2017-07-09T04:40:58.306Z,21.30
2017-07-09T04:43:27.379Z,21.30
2017-07-09T04:45:55.673Z,21.30
2017-07-09T04:48:24.022Z,21.30
2017-07-09T04:50:52.413Z,21.30
2017-07-09T04:53:20.731Z,21.30
2017-07-09T04:55:49.826Z,21.40
2017-07-09T04:58:18.124Z,21.40
2017-07-09T05:00:46.468Z,21.50
2017-07-09T05:03:14.770Z,21.50
2017-07-09T05:05:43.070Z,21.40
2017-07-09T05:08:11.406Z,21.40
2017-07-09T05:10:40.492Z,21.30
2017-07-09T05:13:08.842Z,21.20
2017-07-09T05:15:37.217Z,21.30
2017-07-09T05:18:05.566Z,21.50
2017-07-09T05:20:33.861Z,21.60
2017-07-09T05:23:02.198Z,21.80
2017-07-09T05:25:30.511Z,21.90
2017-07-09T05:27:58.812Z,22.00
2017-07-09T05:30:27.150Z,22.20
2017-07-09T05:32:56.208Z,22.60
2017-07-09T05:35:24.523Z,22.60
2017-07-09T05:37:52.869Z,22.80
2017-07-09T05:40:21.936Z,23.80
2017-07-09T05:42:50.234Z,23.70
2017-07-09T05:45:18.559Z,24.60
2017-07-09T05:47:46.910Z,25.80
2017-07-09T05:50:15.211Z,26.60
2017-07-09T05:52:44.281Z,27.00
2017-07-09T05:55:12.627Z,27.00
2017-07-09T05:57:41.689Z,26.40
2017-07-09T06:00:09.987Z,26.40
2017-07-09T06:02:38.430Z,25.90
2017-07-09T06:05:06.725Z,25.60
2017-07-09T06:07:35.019Z,25.70
2017-07-09T06:10:03.376Z,26.10
2017-07-09T06:12:31.691Z,26.90
2017-07-09T06:15:00.000Z,28.00
2017-07-09T06:17:28.357Z,29.50
2017-07-09T06:19:57.422Z,32.00
2017-07-09T06:22:25.717Z,32.00
2017-07-09T06:24:54.051Z,33.00
2017-07-09T06:27:22.352Z,33.90
2017-07-09T06:29:50.657Z,34.50
2017-07-09T06:32:18.993Z,35.10
2017-07-09T06:34:47.339Z,35.70
2017-07-09T06:37:16.571Z,36.00
2017-07-09T06:39:44.889Z,36.30
2017-07-09T06:42:13.986Z,36.70
2017-07-09T06:44:42.343Z,36.70
2017-07-09T06:47:10.642Z,37.00
2017-07-09T06:49:38.937Z,37.30
2017-07-09T06:52:07.274Z,37.90
2017-07-09T06:54:35.571Z,38.10
2017-07-09T06:57:03.917Z,38.50
2017-07-09T06:59:32.213Z,38.40
2017-07-09T07:02:00.519Z,38.80
2017-07-09T07:04:28.873Z,38.90
2017-07-09T07:06:57.178Z,38.70
2017-07-09T07:09:25.519Z,38.60
2017-07-09T07:11:53.816Z,38.60
2017-07-09T07:14:22.155Z,38.90
2017-07-09T07:16:50.485Z,39.20
2017-07-09T07:19:18.784Z,39.50
2017-07-09T07:21:47.086Z,39.60
2017-07-09T07:24:15.449Z,39.60
2017-07-09T07:26:43.749Z,39.80
2017-07-09T07:29:12.847Z,39.90
2017-07-09T07:31:41.144Z,39.80
2017-07-09T07:34:09.495Z,39.60
2017-07-09T07:36:37.840Z,39.70
2017-07-09T07:39:06.166Z,39.80
2017-07-09T07:41:34.472Z,40.00
2017-07-09T07:44:02.801Z,39.80
2017-07-09T07:46:31.133Z,39.90
2017-07-09T07:49:00.238Z,40.10
2017-07-09T07:51:29.312Z,39.80
2017-07-09T07:53:57.609Z,39.70
2017-07-09T07:56:26.461Z,39.60
2017-07-09T07:58:54.955Z,39.50
2017-07-09T08:01:23.249Z,39.30
2017-07-09T08:03:51.598Z,39.50
2017-07-09T08:06:20.670Z,39.50
2017-07-09T08:08:49.025Z,39.50
2017-07-09T08:11:18.086Z,38.20
2017-07-09T08:13:46.405Z,38.20
2017-07-09T08:16:14.745Z,37.80
2017-07-09T08:18:43.809Z,38.10
2017-07-09T08:21:12.107Z,38.10
2017-07-09T08:23:40.444Z,38.30
2017-07-09T08:26:08.775Z,38.40
2017-07-09T08:28:37.070Z,38.50
2017-07-09T08:31:05.400Z,37.90
2017-07-09T08:33:33.697Z,37.80
2017-07-09T08:36:01.996Z,37.90
2017-07-09T08:38:30.338Z,37.70
2017-07-09T08:40:58.634Z,37.50
2017-07-09T08:43:26.946Z,37.50
2017-07-09T08:45:55.283Z,37.60
2017-07-09T08:48:23.586Z,37.50
2017-07-09T08:50:51.915Z,37.50
2017-07-09T08:53:20.242Z,37.40
2017-07-09T08:55:48.538Z,37.00
2017-07-09T08:58:16.908Z,36.80
2017-07-09T09:00:45.273Z,36.90
2017-07-09T09:03:13.574Z,36.80
2017-07-09T09:05:41.877Z,36.90
2017-07-09T09:08:10.208Z,37.00
2017-07-09T09:10:39.269Z,36.30
2017-07-09T09:13:07.590Z,36.20
2017-07-09T09:15:36.917Z,35.90
2017-07-09T09:18:05.927Z,35.60
2017-07-09T09:20:34.308Z,35.50
2017-07-09T09:23:02.630Z,35.40
2017-07-09T09:25:31.118Z,35.30
2017-07-09T09:28:00.177Z,35.30
2017-07-09T09:30:28.546Z,35.30
2017-07-09T09:32:56.852Z,35.40
2017-07-09T09:35:25.909Z,35.30
2017-07-09T09:37:54.309Z,35.30
2017-07-09T09:40:23.376Z,35.20
2017-07-09T09:42:51.666Z,35.20
2017-07-09T09:45:19.995Z,35.20
2017-07-09T09:47:48.337Z,34.90
2017-07-09T09:50:17.424Z,33.40
2017-07-09T09:52:45.931Z,33.40
2017-07-09T09:55:14.318Z,33.20
2017-07-09T09:57:42.606Z,33.40
2017-07-09T10:00:10.906Z,33.50
2017-07-09T10:02:39.236Z,33.60
2017-07-09T10:05:07.535Z,33.70
2017-07-09T10:07:35.860Z,33.60
2017-07-09T10:10:04.190Z,33.50
2017-07-09T10:12:33.256Z,33.70
2017-07-09T10:15:01.573Z,33.70
2017-07-09T10:17:29.910Z,33.90
2017-07-09T10:19:58.257Z,33.90
2017-07-09T10:22:26.547Z,34.00
2017-07-09T10:24:54.840Z,34.10
2017-07-09T10:27:23.951Z,34.20
2017-07-09T10:29:52.265Z,34.20
2017-07-09T10:32:21.336Z,33.80
2017-07-09T10:34:49.658Z,33.80
2017-07-09T10:37:17.999Z,33.80
2017-07-09T10:39:47.059Z,33.50
2017-07-09T10:42:15.365Z,33.50
2017-07-09T10:44:43.702Z,33.40
2017-07-09T10:47:12.011Z,33.10
2017-07-09T10:49:41.106Z,32.70
2017-07-09T10:52:09.446Z,32.60
2017-07-09T10:54:37.761Z,32.40
2017-07-09T10:57:06.056Z,32.20
2017-07-09T10:59:35.150Z,32.00
2017-07-09T11:02:03.477Z,32.00
2017-07-09T11:04:31.822Z,32.00
2017-07-09T11:07:00.114Z,32.00
2017-07-09T11:09:28.402Z,31.90
2017-07-09T11:11:56.726Z,31.80
2017-07-09T11:14:25.027Z,31.60
2017-07-09T11:16:53.367Z,31.60
2017-07-09T11:19:21.707Z,31.70
2017-07-09T11:21:50.060Z,31.80
2017-07-09T11:24:18.355Z,31.90
2017-07-09T11:26:46.655Z,31.90
2017-07-09T11:29:15.033Z,31.80
2017-07-09T11:31:43.350Z,31.60
2017-07-09T11:34:11.648Z,31.60
2017-07-09T11:36:39.977Z,31.50
2017-07-09T11:39:08.295Z,31.70
2017-07-09T11:41:36.622Z,31.80
2017-07-09T11:44:04.914Z,31.80
2017-07-09T11:46:33.202Z,31.80
2017-07-09T11:49:01.539Z,31.80
2017-07-09T11:51:29.834Z,31.80
2017-07-09T11:53:58.133Z,31.80
2017-07-09T11:56:26.590Z,31.90
2017-07-09T11:58:54.873Z,31.80
2017-07-09T12:01:23.201Z,31.30
2017-07-09T12:03:51.590Z,31.20
2017-07-09T12:06:19.898Z,31.40
2017-07-09T12:08:48.230Z,31.60
2017-07-09T12:11:16.530Z,31.40
2017-07-09T12:13:44.822Z,31.20
2017-07-09T12:16:13.175Z,31.50
2017-07-09T12:18:41.482Z,31.60
2017-07-09T12:21:09.790Z,31.80
2017-07-09T12:23:38.134Z,32.00
2017-07-09T12:26:06.441Z,32.00
2017-07-09T12:28:34.738Z,32.10
2017-07-09T12:31:03.198Z,32.20
2017-07-09T12:33:31.494Z,32.30
2017-07-09T12:36:00.562Z,32.30
2017-07-09T12:38:28.896Z,32.30
2017-07-09T12:40:57.204Z,32.40
2017-07-09T12:43:25.594Z,32.50
2017-07-09T12:45:53.888Z,32.70
2017-07-09T12:48:22.289Z,32.50
2017-07-09T12:50:50.586Z,32.00
2017-07-09T12:53:18.939Z,31.90
2017-07-09T12:55:47.282Z,31.70
2017-07-09T12:58:15.578Z,31.70
2017-07-09T13:00:43.919Z,31.50
2017-07-09T13:03:12.214Z,31.70
2017-07-09T13:05:40.513Z,31.70
2017-07-09T13:08:08.841Z,31.70
2017-07-09T13:10:37.934Z,31.60
2017-07-09T13:13:06.327Z,31.70
2017-07-09T13:15:34.634Z,31.60
2017-07-09T13:18:02.967Z,31.70
2017-07-09T13:20:31.319Z,31.50
2017-07-09T13:22:59.622Z,31.60
2017-07-09T13:25:27.910Z,31.70
2017-07-09T13:27:56.245Z,31.70
2017-07-09T13:30:24.544Z,31.70
2017-07-09T13:32:52.841Z,31.60
2017-07-09T13:35:21.174Z,31.60
2017-07-09T13:37:49.515Z,31.70
2017-07-09T13:40:18.570Z,31.90
2017-07-09T13:42:47.035Z,31.80
2017-07-09T13:45:16.172Z,32.00
2017-07-09T13:47:45.232Z,31.90
2017-07-09T13:50:13.526Z,31.90
2017-07-09T13:52:41.872Z,32.00
2017-07-09T13:55:10.222Z,32.00
2017-07-09T13:57:38.530Z,32.20
2017-07-09T14:00:08.294Z,32.00
2017-07-09T14:02:36.587Z,32.00
2017-07-09T14:05:04.882Z,31.80
2017-07-09T14:07:33.257Z,31.80
2017-07-09T14:10:01.548Z,31.70
2017-07-09T14:12:29.850Z,31.70
2017-07-09T14:14:58.181Z,31.80
2017-07-09T14:17:26.495Z,31.80
2017-07-09T14:19:54.792Z,31.70
2017-07-09T14:22:23.926Z,31.80
2017-07-09T14:24:52.374Z,31.70
2017-07-09T14:27:20.667Z,31.70
2017-07-09T14:29:49.013Z,31.70
2017-07-09T14:32:17.306Z,31.50
2017-07-09T14:34:45.595Z,31.40
2017-07-09T14:37:13.921Z,31.40
2017-07-09T14:39:42.211Z,31.50
2017-07-09T14:42:10.510Z,31.60
2017-07-09T14:44:38.856Z,31.80
2017-07-09T14:47:07.913Z,32.00
2017-07-09T14:49:36.209Z,32.10
2017-07-09T14:52:04.586Z,32.10
2017-07-09T14:54:32.844Z,31.90
2017-07-09T14:57:01.178Z,31.70
2017-07-09T14:59:29.476Z,31.70
2017-07-09T15:01:57.828Z,31.50
2017-07-09T15:04:26.137Z,31.60
2017-07-09T15:06:54.458Z,31.50
2017-07-09T15:09:22.802Z,31.40
2017-07-09T15:11:51.138Z,31.40
2017-07-09T15:14:19.437Z,31.30
2017-07-09T15:16:48.534Z,31.20
2017-07-09T15:19:16.883Z,31.20
2017-07-09T15:21:45.173Z,31.00
2017-07-09T15:24:13.460Z,30.90
2017-07-09T15:26:42.562Z,30.60
2017-07-09T15:29:10.915Z,30.60
2017-07-09T15:31:39.338Z,30.60
2017-07-09T15:34:07.688Z,30.50
2017-07-09T15:36:36.759Z,30.50
2017-07-09T15:39:05.049Z,30.50
2017-07-09T15:41:33.370Z,30.60
2017-07-09T15:44:01.836Z,30.60
2017-07-09T15:46:30.938Z,30.50
2017-07-09T15:48:59.239Z,30.40
2017-07-09T15:51:27.538Z,30.60
2017-07-09T15:53:55.879Z,30.60
2017-07-09T15:56:24.183Z,30.80
2017-07-09T15:58:52.482Z,30.80
2017-07-09T16:01:20.815Z,30.80
2017-07-09T16:03:49.107Z,30.70
2017-07-09T16:06:17.410Z,30.60
2017-07-09T16:08:45.751Z,30.60
2017-07-09T16:11:14.043Z,30.60
2017-07-09T16:13:42.338Z,30.60
2017-07-09T16:16:11.422Z,30.50
2017-07-09T16:18:39.721Z,30.50
2017-07-09T16:21:08.345Z,30.60
2017-07-09T16:23:36.637Z,30.60
2017-07-09T16:26:04.924Z,30.70
2017-07-09T16:28:33.256Z,30.90
2017-07-09T16:31:02.314Z,30.90
2017-07-09T16:33:30.606Z,30.80
2017-07-09T16:35:59.711Z,30.80
2017-07-09T16:38:28.053Z,30.80
2017-07-09T16:40:58.318Z,30.70
2017-07-09T16:43:26.616Z,30.70
2017-07-09T16:45:54.946Z,30.60
2017-07-09T16:48:23.327Z,30.60
2017-07-09T16:50:51.630Z,30.40
2017-07-09T16:53:20.001Z,30.40
2017-07-09T16:55:48.306Z,30.50
2017-07-09T16:58:16.604Z,30.40
2017-07-09T17:00:44.954Z,30.40
2017-07-09T17:03:13.246Z,30.30
2017-07-09T17:05:41.557Z,30.20
2017-07-09T17:08:09.894Z,30.00
2017-07-09T17:10:38.191Z,30.00
2017-07-09T17:13:06.489Z,30.10
2017-07-09T17:15:34.811Z,30.00
2017-07-09T17:18:03.132Z,30.00
2017-07-09T17:20:31.467Z,29.90
2017-07-09T17:22:59.754Z,29.90
2017-07-09T17:25:28.867Z,29.80
2017-07-09T17:27:57.975Z,29.80
2017-07-09T17:30:26.275Z,29.80
2017-07-09T17:32:54.583Z,29.70
2017-07-09T17:35:22.919Z,29.70
2017-07-09T17:37:51.980Z,29.50
2017-07-09T17:40:20.274Z,29.60
2017-07-09T17:42:48.622Z,29.50
2017-07-09T17:45:17.737Z,29.50
2017-07-09T17:47:46.058Z,29.40
2017-07-09T17:50:15.115Z,29.30
2017-07-09T17:52:43.442Z,29.30
2017-07-09T17:55:11.789Z,29.30
2017-07-09T17:57:40.858Z,29.30
2017-07-09T18:00:09.165Z,29.30
2017-07-09T18:02:37.522Z,29.40
2017-07-09T18:05:06.580Z,29.40
2017-07-09T18:07:34.926Z,29.40
2017-07-09T18:10:03.235Z,29.40
2017-07-09T18:12:31.526Z,29.30
2017-07-09T18:14:59.894Z,29.30
2017-07-09T18:17:28.206Z,29.30
2017-07-09T18:19:56.523Z,29.30
2017-07-09T18:22:24.853Z,29.20
2017-07-09T18:24:53.944Z,29.10
2017-07-09T18:27:22.257Z,29.10
2017-07-09T18:29:50.563Z,29.10
2017-07-09T18:32:18.904Z,29.00
2017-07-09T18:34:47.987Z,28.80
2017-07-09T18:37:16.283Z,28.80
2017-07-09T18:39:44.643Z,28.70
2017-07-09T18:42:13.016Z,28.70
2017-07-09T18:44:41.343Z,28.60
2017-07-09T18:47:10.471Z,28.40
2017-07-09T18:49:38.763Z,28.30
2017-07-09T18:52:07.865Z,28.20
2017-07-09T18:54:36.195Z,28.20
2017-07-09T18:57:05.270Z,28.00
2017-07-09T18:59:33.779Z,28.00
2017-07-09T19:02:02.073Z,28.00
2017-07-09T19:04:30.443Z,27.90
2017-07-09T19:06:58.787Z,27.80
2017-07-09T19:09:27.168Z,27.80
2017-07-09T19:11:55.492Z,27.70
2017-07-09T19:14:23.834Z,27.60
2017-07-09T19:16:52.126Z,27.50
2017-07-09T19:19:20.469Z,27.40
2017-07-09T19:21:48.815Z,27.30
2017-07-09T19:24:17.112Z,27.30
2017-07-09T19:26:45.480Z,27.30
2017-07-09T19:29:14.570Z,27.20
2017-07-09T19:31:42.939Z,27.10
2017-07-09T19:34:11.258Z,27.10
2017-07-09T19:36:39.638Z,27.10
2017-07-09T19:39:08.019Z,27.00
2017-07-09T19:41:37.119Z,27.00
2017-07-09T19:44:05.517Z,26.90
2017-07-09T19:46:33.805Z,27.00
2017-07-09T19:49:02.261Z,26.90
2017-07-09T19:51:31.363Z,26.90
2017-07-09T19:53:59.722Z,26.80
2017-07-09T19:56:28.022Z,26.80
2017-07-09T19:58:56.410Z,26.80
2017-07-09T20:01:24.718Z,26.80
2017-07-09T20:03:53.014Z,26.80
2017-07-09T20:06:21.347Z,26.80
2017-07-09T20:08:49.785Z,26.80
2017-07-09T20:11:18.081Z,26.80
2017-07-09T20:13:46.393Z,26.80
2017-07-09T20:16:14.766Z,26.70
2017-07-09T20:18:43.057Z,26.70
2017-07-09T20:21:12.282Z,26.70
2017-07-09T20:23:41.343Z,26.70
2017-07-09T20:26:09.638Z,26.60
2017-07-09T20:28:37.967Z,26.60
2017-07-09T20:31:06.258Z,26.60
2017-07-09T20:33:34.585Z,26.60
2017-07-09T20:36:02.878Z,26.50
2017-07-09T20:38:31.194Z,26.60
2017-07-09T20:40:59.594Z,26.50
2017-07-09T20:43:27.962Z,26.50
2017-07-09T20:45:56.260Z,26.50
2017-07-09T20:48:24.559Z,26.50
2017-07-09T20:50:52.961Z,26.60
2017-07-09T20:53:22.018Z,26.60
2017-07-09T20:55:50.309Z,26.60
2017-07-09T20:58:18.646Z,26.60
2017-07-09T21:00:47.017Z,26.60
2017-07-09T21:03:15.325Z,26.50
2017-07-09T21:05:43.690Z,26.50
2017-07-09T21:08:12.749Z,26.40
2017-07-09T21:10:41.046Z,26.40
2017-07-09T21:13:09.434Z,26.30
2017-07-09T21:15:37.724Z,26.30
2017-07-09T21:18:06.022Z,26.30
2017-07-09T21:20:35.155Z,26.10
2017-07-09T21:23:04.216Z,26.10
2017-07-09T21:25:33.330Z,26.20
2017-07-09T21:28:01.633Z,26.20
2017-07-09T21:30:29.928Z,26.00
2017-07-09T21:32:58.465Z,25.70
2017-07-09T21:35:26.751Z,25.20
2017-07-09T21:37:55.047Z,24.50
2017-07-09T21:40:23.391Z,23.90
2017-07-09T21:42:51.691Z,23.40
2017-07-09T21:45:20.809Z,22.90
2017-07-09T21:47:49.153Z,22.50
2017-07-09T21:50:18.215Z,21.80
2017-07-09T21:52:46.515Z,21.80
2017-07-09T21:55:14.845Z,21.70
2017-07-09T21:57:43.170Z,21.60
2017-07-09T22:00:11.509Z,21.50
2017-07-09T22:02:39.796Z,21.40
2017-07-09T22:05:08.090Z,21.40
2017-07-09T22:07:36.411Z,21.40
2017-07-09T22:10:04.734Z,21.30
2017-07-09T22:12:33.059Z,21.30
2017-07-09T22:15:01.388Z,21.20
2017-07-09T22:17:29.756Z,21.20
2017-07-09T22:19:58.054Z,21.20
2017-07-09T22:22:26.406Z,21.20
2017-07-09T22:24:54.698Z,21.30
2017-07-09T22:27:22.986Z,21.30
2017-07-09T22:29:51.325Z,21.40
2017-07-09T22:32:19.617Z,21.40
2017-07-09T22:34:48.680Z,21.40
2017-07-09T22:37:16.998Z,21.40
2017-07-09T22:39:45.290Z,21.50
2017-07-09T22:42:13.621Z,21.60
2017-07-09T22:44:41.910Z,21.70
2017-07-09T22:47:10.204Z,21.80
2017-07-09T22:49:38.522Z,21.90
2017-07-09T22:52:06.813Z,22.00
2017-07-09T22:54:35.136Z,22.00
2017-07-09T22:57:03.431Z,22.10
2017-07-09T22:59:31.847Z,22.10
2017-07-09T23:02:00.174Z,22.10
2017-07-09T23:04:29.289Z,22.20
2017-07-09T23:06:58.387Z,22.30
2017-07-09T23:09:26.681Z,22.30
2017-07-09T23:11:54.970Z,22.30
2017-07-09T23:14:23.311Z,22.40
2017-07-09T23:16:51.602Z,22.40
2017-07-09T23:19:19.896Z,22.40
2017-07-09T23:21:48.223Z,22.40
2017-07-09T23:24:16.518Z,22.40
2017-07-09T23:26:44.863Z,22.40
2017-07-09T23:29:13.159Z,22.40
2017-07-09T23:31:41.479Z,22.40
2017-07-09T23:34:09.801Z,22.30
2017-07-09T23:36:38.105Z,22.30
2017-07-09T23:39:06.435Z,22.10
2017-07-09T23:41:34.774Z,22.00
2017-07-09T23:44:03.076Z,22.00
2017-07-09T23:46:31.379Z,21.90
2017-07-09T23:48:59.709Z,21.80
2017-07-09T23:51:27.997Z,21.90
2017-07-09T23:53:56.322Z,22.00
2017-07-09T23:56:24.647Z,22.10
2017-07-09T23:58:52.938Z,22.00
